Time;durP1;ratioP1;P1;durP2;ratioP2;P2;SDS_P1;SDS_P2;PMS_P1;PMS_P2;Temp;Humidity;BMP_temperature;BMP_pressure;BME280_temperature;BME280_humidity;BME280_pressure;Samples;Min_cycle;Max_cycle;Signal;HPM_P1;HPM_P2
2023/10/12 00:01:57;;;;;;;34.22;25.15;;;;;;;;;;5071032;28;20070;-67
2023/10/12 00:04:24;;;;;;;33.05;25.23;;;;;;;;;;5069199;28;20034;-67
2023/10/12 00:10:19;;;;;;;33.17;25.35;;;;;;;;;;5066851;28;20101;-66
2023/10/12 00:12:46;;;;;;;35.65;23.08;;;;;;;;;;5070715;28;20022;-66
2023/10/12 00:17:44;;;;;;;34.20;24.33;;;;;;;;;;5071151;28;20052;-67
2023/10/12 00:20:21;;;;;;;34.65;23.45;;;;;;;;;;5063773;28;20106;-66
2023/10/12 00:22:47;;;;;;;31.13;22.13;;;;;;;;;;5065494;28;20029;-66
2023/10/12 00:25:16;;;;;;;28.73;23.13;;;;;;;;;;5070123;28;20044;-66
2023/10/12 00:27:42;;;;;;;36.00;23.35;;;;;;;;;;5070602;28;20033;-67
2023/10/12 00:30:09;;;;;;;30.33;22.58;;;;;;;;;;5070531;28;20038;-67
2023/10/12 00:32:36;;;;;;;31.45;23.60;;;;;;;;;;5070893;28;20024;-66
2023/10/12 00:35:02;;;;;;;31.85;21.67;;;;;;;;;;5070254;28;20137;-67
2023/10/12 00:37:32;;;;;;;32.47;21.67;;;;;;;;;;5071012;28;20033;-66
2023/10/12 00:40:20;;;;;;;31.15;23.88;;;;;;;;;;5069963;28;20037;-66
2023/10/12 00:42:51;;;;;;;30.23;23.00;;;;;;;;;;5059656;28;20037;-67
2023/10/12 00:45:20;;;;;;;27.80;21.10;;;;;;;;;;5068774;28;20040;-66
2023/10/12 00:47:48;;;;;;;33.72;22.42;;;;;;;;;;5070678;28;20089;-66
2023/10/12 00:50:16;;;;;;;27.77;22.23;;;;;;;;;;5070427;28;20040;-66
2023/10/12 00:55:37;;;;;;;25.27;21.30;;;;;;;;;;5035931;28;20041;-66
2023/10/12 00:58:05;;;;;;;31.98;22.00;;;;;;;;;;5074518;28;20521;-66
2023/10/12 01:00:35;;;;;;;34.17;24.33;;;;;;;;;;5073653;28;20021;-67
2023/10/12 01:06:05;;;;;;;30.13;23.92;;;;;;;;;;5073062;28;20048;-66
2023/10/12 01:08:31;;;;;;;33.22;24.13;;;;;;;;;;5072929;28;20028;-66
2023/10/12 01:11:04;;;;;;;33.60;25.27;;;;;;;;;;5072103;28;20039;-67
2023/10/12 01:13:33;;;;;;;35.45;25.80;;;;;;;;;;5073870;28;20037;-66
2023/10/12 01:16:04;;;;;;;32.28;24.90;;;;;;;;;;5072402;28;20348;-67
2023/10/12 01:18:30;;;;;;;35.75;24.45;;;;;;;;;;5074428;28;20152;-66
2023/10/12 01:20:58;;;;;;;37.15;25.65;;;;;;;;;;5060476;28;20029;-66
2023/10/12 01:23:24;;;;;;;37.47;25.08;;;;;;;;;;5068718;28;20040;-67
2023/10/12 01:25:50;;;;;;;33.38;25.15;;;;;;;;;;5072438;28;20050;-66
2023/10/12 01:31:27;;;;;;;33.05;25.70;;;;;;;;;;5073835;28;20039;-67
2023/10/12 01:33:54;;;;;;;34.58;24.92;;;;;;;;;;5073107;28;20075;-66
2023/10/12 01:36:21;;;;;;;29.90;24.27;;;;;;;;;;5055656;28;20100;-66
2023/10/12 01:38:47;;;;;;;31.92;23.77;;;;;;;;;;5072686;28;20111;-66
2023/10/12 01:41:24;;;;;;;32.03;24.38;;;;;;;;;;5072075;28;20123;-67
2023/10/12 01:43:50;;;;;;;33.15;24.50;;;;;;;;;;5072968;28;20249;-66
2023/10/12 01:46:21;;;;;;;36.30;26.58;;;;;;;;;;5073520;28;20032;-66
2023/10/12 01:48:49;;;;;;;37.42;26.65;;;;;;;;;;5068083;28;20041;-66
2023/10/12 01:51:24;;;;;;;31.25;24.60;;;;;;;;;;5064284;28;20017;-67
2023/10/12 01:53:52;;;;;;;35.85;26.05;;;;;;;;;;5072153;28;20055;-66
2023/10/12 01:56:18;;;;;;;36.72;26.27;;;;;;;;;;5073119;28;20025;-67
2023/10/12 01:58:48;;;;;;;33.03;26.70;;;;;;;;;;5070280;28;20497;-66
2023/10/12 02:01:24;;;;;;;36.28;26.67;;;;;;;;;;5062073;28;20024;-67
2023/10/12 02:03:57;;;;;;;36.47;27.02;;;;;;;;;;5071995;28;20481;-67
2023/10/12 02:06:28;;;;;;;38.92;26.30;;;;;;;;;;5072750;28;20408;-67
2023/10/12 02:08:54;;;;;;;38.53;26.00;;;;;;;;;;5072219;28;20059;-67
2023/10/12 02:13:50;;;;;;;35.13;24.75;;;;;;;;;;5072600;28;20035;-66
2023/10/12 02:16:30;;;;;;;32.00;23.48;;;;;;;;;;5072789;28;20477;-67
2023/10/12 02:18:57;;;;;;;32.95;24.25;;;;;;;;;;5072516;28;20028;-66
2023/10/12 02:21:26;;;;;;;35.60;24.65;;;;;;;;;;5072790;28;20040;-67
2023/10/12 02:24:11;;;;;;;31.88;22.15;;;;;;;;;;5072133;28;20055;-65
2023/10/12 02:29:11;;;;;;;30.17;24.15;;;;;;;;;;5072749;28;20485;-66
2023/10/12 02:31:39;;;;;;;33.90;22.40;;;;;;;;;;5072087;28;20446;-65
2023/10/12 02:34:16;;;;;;;34.03;25.88;;;;;;;;;;5067631;28;20135;-66
2023/10/12 02:39:39;;;;;;;30.08;23.35;;;;;;;;;;5052699;28;20394;-66
2023/10/12 02:47:23;;;;;;;35.60;23.77;;;;;;;;;;5050117;28;20064;-68
2023/10/12 02:52:35;;;;;;;31.27;22.70;;;;;;;;;;5051748;28;20422;-68
2023/10/12 02:55:18;;;;;;;28.27;22.85;;;;;;;;;;5050696;28;20025;-66
2023/10/12 02:57:53;;;;;;;30.23;22.15;;;;;;;;;;5051139;28;20170;-65
2023/10/12 03:00:22;;;;;;;27.67;22.38;;;;;;;;;;5051060;28;20082;-66
2023/10/12 03:02:52;;;;;;;30.05;21.25;;;;;;;;;;5051564;28;20027;-65
2023/10/12 03:05:31;;;;;;;29.52;22.60;;;;;;;;;;5044150;28;20018;-65
2023/10/12 03:08:06;;;;;;;30.55;21.52;;;;;;;;;;5046568;28;20025;-65
2023/10/12 03:10:31;;;;;;;;;;;;;;;;;;5053144;28;20037;-66
2023/10/12 03:16:20;;;;;;;32.25;21.80;;;;;;;;;;5043361;28;20113;-67
2023/10/12 03:18:53;;;;;;;33.17;24.25;;;;;;;;;;5052256;28;20025;-67
2023/10/12 03:21:19;;;;;;;28.30;23.42;;;;;;;;;;5052582;28;20076;-66
2023/10/12 03:23:48;;;;;;;29.50;21.25;;;;;;;;;;5052291;28;20029;-67
2023/10/12 03:26:20;;;;;;;27.65;21.00;;;;;;;;;;5052345;28;20078;-67
2023/10/12 03:28:46;;;;;;;29.98;21.40;;;;;;;;;;5052211;28;20017;-66
2023/10/12 03:31:21;;;;;;;29.33;22.27;;;;;;;;;;5052326;28;20028;-67
2023/10/12 03:33:53;;;;;;;28.27;21.83;;;;;;;;;;5059967;28;20351;-66
2023/10/12 03:36:23;;;;;;;27.48;22.15;;;;;;;;;;5072274;28;20020;-66
2023/10/12 03:44:19;;;;;;;28.33;21.10;;;;;;;;;;5072383;28;20064;-67
2023/10/12 03:46:47;;;;;;;26.40;21.40;;;;;;;;;;5072247;28;20020;-67
2023/10/12 03:49:32;;;;;;;27.98;21.70;;;;;;;;;;5070666;28;20477;-67
2023/10/12 03:52:13;;;;;;;26.75;20.15;;;;;;;;;;5072084;28;20024;-67
2023/10/12 03:54:45;;;;;;;28.55;19.90;;;;;;;;;;5059554;28;20041;-66
2023/10/12 03:57:19;;;;;;;27.75;20.95;;;;;;;;;;5072175;28;20033;-67
2023/10/12 04:02:47;;;;;;;27.00;21.25;;;;;;;;;;5072069;28;20028;-66
2023/10/12 04:05:56;;;;;;;25.98;20.92;;;;;;;;;;5070430;28;20024;-66
2023/10/12 04:18:35;;;;;;;22.58;18.63;;;;;;;;;;5071600;28;20071;-67
2023/10/12 04:21:04;;;;;;;27.45;20.33;;;;;;;;;;5071481;28;20477;-67
2023/10/12 04:26:27;;;;;;;26.90;20.05;;;;;;;;;;5064703;28;20036;-67
2023/10/12 04:28:56;;;;;;;26.35;19.80;;;;;;;;;;5075352;28;20519;-67
2023/10/12 04:39:36;;;;;;;26.02;21.27;;;;;;;;;;5075613;28;20086;-67
2023/10/12 04:42:12;;;;;;;27.40;20.35;;;;;;;;;;5073997;28;20393;-67
2023/10/12 04:44:44;;;;;;;28.50;20.13;;;;;;;;;;5070421;28;20384;-67
2023/10/12 04:47:12;;;;;;;29.27;21.00;;;;;;;;;;5067097;28;20103;-67
2023/10/12 04:57:38;;;;;;;28.20;21.90;;;;;;;;;;5043970;28;20020;-67
2023/10/12 05:03:00;;;;;;;28.42;22.45;;;;;;;;;;5075112;28;20028;-67
2023/10/12 05:07:54;;;;;;;29.02;21.75;;;;;;;;;;5060911;28;20036;-67
2023/10/12 05:10:27;;;;;;;29.55;21.27;;;;;;;;;;5074802;28;20111;-67
2023/10/12 05:13:04;;;;;;;27.20;21.35;;;;;;;;;;5072804;28;20032;-67
2023/10/12 05:15:41;;;;;;;29.17;23.33;;;;;;;;;;5064549;28;20020;-67
2023/10/12 05:18:07;;;;;;;34.45;23.75;;;;;;;;;;5054108;28;20115;-67
2023/10/12 05:20:34;;;;;;;26.77;22.55;;;;;;;;;;5074606;28;20024;-67
2023/10/12 05:23:02;;;;;;;28.33;22.67;;;;;;;;;;5074543;28;20032;-67
2023/10/12 05:25:47;;;;;;;34.80;23.98;;;;;;;;;;5074725;28;20021;-67
2023/10/12 05:28:14;;;;;;;29.00;23.88;;;;;;;;;;5074253;28;20043;-67
2023/10/12 05:30:59;;;;;;;33.45;23.77;;;;;;;;;;5074417;28;20028;-67
2023/10/12 05:36:00;;;;;;;33.17;24.02;;;;;;;;;;5074506;28;20029;-67
2023/10/12 05:38:34;;;;;;;29.20;23.13;;;;;;;;;;5072935;28;20104;-67
2023/10/12 05:41:01;;;;;;;33.55;26.00;;;;;;;;;;5064674;28;20032;-64
2023/10/12 05:43:31;;;;;;;30.85;24.35;;;;;;;;;;5056110;28;20017;-63
2023/10/12 05:46:15;;;;;;;33.60;26.40;;;;;;;;;;5073947;28;20108;-64
2023/10/12 05:48:46;;;;;;;31.88;24.70;;;;;;;;;;5071537;28;20420;-64
2023/10/12 05:51:18;;;;;;;30.00;24.30;;;;;;;;;;5072124;28;20078;-64
2023/10/12 05:53:44;;;;;;;30.75;23.23;;;;;;;;;;5072007;28;20039;-65
2023/10/12 05:56:20;;;;;;;31.63;24.77;;;;;;;;;;5069959;28;20706;-64
2023/10/12 05:58:46;;;;;;;33.65;25.80;;;;;;;;;;5068358;28;20359;-65
2023/10/12 06:04:16;;;;;;;32.85;24.23;;;;;;;;;;5064429;28;20039;-64
2023/10/12 06:06:48;;;;;;;32.55;24.58;;;;;;;;;;5067604;28;20401;-64
2023/10/12 06:09:20;;;;;;;31.77;23.60;;;;;;;;;;5068116;28;20029;-64
2023/10/12 06:11:47;;;;;;;30.55;23.38;;;;;;;;;;5074007;28;20093;-64
2023/10/12 06:14:14;;;;;;;33.30;23.45;;;;;;;;;;5072311;28;20078;-64
2023/10/12 06:16:40;;;;;;;32.33;23.38;;;;;;;;;;5073835;28;20033;-64
2023/10/12 06:19:21;;;;;;;37.33;24.70;;;;;;;;;;5060188;28;20054;-64
2023/10/12 06:21:50;;;;;;;30.17;23.67;;;;;;;;;;5072721;28;20035;-64
2023/10/12 06:24:21;;;;;;;29.95;24.25;;;;;;;;;;5064410;28;20108;-64
2023/10/12 06:26:47;;;;;;;33.70;22.98;;;;;;;;;;5066793;28;20116;-64
2023/10/12 06:29:24;;;;;;;34.58;23.88;;;;;;;;;;5058748;28;20353;-64
2023/10/12 06:31:54;;;;;;;31.23;24.58;;;;;;;;;;5063940;28;20135;-64
2023/10/12 06:34:21;;;;;;;33.05;23.00;;;;;;;;;;5064982;28;20077;-64
2023/10/12 06:36:48;;;;;;;35.33;25.17;;;;;;;;;;5069836;28;20028;-64
2023/10/12 06:44:28;;;;;;;35.17;25.27;;;;;;;;;;5067047;28;20028;-64
2023/10/12 06:46:57;;;;;;;29.77;24.85;;;;;;;;;;5058100;28;20024;-64
2023/10/12 06:49:28;;;;;;;37.53;26.88;;;;;;;;;;5051847;28;20033;-64
2023/10/12 06:52:00;;;;;;;37.65;25.00;;;;;;;;;;5071997;28;20112;-64
2023/10/12 06:59:52;;;;;;;38.53;26.45;;;;;;;;;;5060442;28;20466;-64
2023/10/12 07:02:24;;;;;;;39.08;25.27;;;;;;;;;;5072637;28;20028;-64
2023/10/12 07:04:54;;;;;;;36.38;24.55;;;;;;;;;;5072687;28;20029;-64
2023/10/12 07:07:58;;;;;;;34.67;25.73;;;;;;;;;;5072749;28;20036;-64
2023/10/12 07:10:28;;;;;;;33.15;23.52;;;;;;;;;;5059495;28;20486;-64
2023/10/12 07:12:59;;;;;;;33.63;25.65;;;;;;;;;;5072636;28;20378;-64
2023/10/12 07:15:31;;;;;;;33.92;24.35;;;;;;;;;;5072201;28;20059;-64
2023/10/12 07:17:57;;;;;;;35.95;27.48;;;;;;;;;;5072407;28;20042;-63
2023/10/12 07:20:46;;;;;;;34.55;26.00;;;;;;;;;;5072277;28;20031;-64
2023/10/12 07:23:28;;;;;;;39.15;26.85;;;;;;;;;;5071878;28;20039;-64
2023/10/12 07:25:59;;;;;;;32.30;24.88;;;;;;;;;;5070866;28;20078;-64
2023/10/12 07:28:32;;;;;;;34.15;25.92;;;;;;;;;;5072537;28;20044;-64
2023/10/12 07:33:52;;;;;;;34.85;25.10;;;;;;;;;;5059054;28;20086;-64
2023/10/12 07:36:18;;;;;;;34.10;25.58;;;;;;;;;;5072196;28;20136;-64
2023/10/12 07:39:13;;;;;;;32.65;25.13;;;;;;;;;;5070851;28;20477;-64
2023/10/12 07:41:41;;;;;;;30.50;23.63;;;;;;;;;;5071912;28;20466;-64
2023/10/12 07:44:07;;;;;;;34.67;25.50;;;;;;;;;;5070802;28;20016;-64
2023/10/12 07:46:35;;;;;;;34.88;25.45;;;;;;;;;;5071723;28;20492;-64
2023/10/12 07:57:17;;;;;;;31.50;24.92;;;;;;;;;;5072015;28;20035;-65
2023/10/12 08:00:29;;;;;;;34.88;25.33;;;;;;;;;;5070583;28;20491;-65
2023/10/12 08:15:55;;;;;;;31.98;25.60;;;;;;;;;;5071824;28;20485;-62
2023/10/12 08:21:31;;;;;;;40.60;29.13;;;;;;;;;;5071700;28;20163;-63
2023/10/12 08:26:35;;;;;;;36.60;27.20;;;;;;;;;;5058926;28;20037;-63
2023/10/12 08:35:10;;;;;;;44.22;30.83;;;;;;;;;;5071460;28;20050;-63
2023/10/12 08:37:37;;;;;;;40.13;29.67;;;;;;;;;;5071218;28;20080;-63
2023/10/12 08:40:08;;;;;;;43.17;29.83;;;;;;;;;;5071691;28;20478;-63
2023/10/12 08:45:07;;;;;;;35.97;28.80;;;;;;;;;;5071686;28;20414;-63
2023/10/12 08:52:27;;;;;;;40.75;27.95;;;;;;;;;;5071395;28;20538;-63
2023/10/12 08:54:58;;;;;;;39.95;29.35;;;;;;;;;;5071034;28;20017;-63
2023/10/12 08:57:38;;;;;;;43.22;32.53;;;;;;;;;;5071163;28;20029;-63
2023/10/12 09:00:39;;;;;;;42.20;30.55;;;;;;;;;;5060617;28;20036;-63
2023/10/12 09:03:24;;;;;;;41.90;31.40;;;;;;;;;;5060122;28;20112;-63
2023/10/12 09:05:58;;;;;;;43.45;32.60;;;;;;;;;;5051333;28;20017;-63
2023/10/12 09:08:39;;;;;;;;;;;;;;;;;;5068416;28;20035;-63
2023/10/12 09:13:37;;;;;;;47.03;34.55;;;;;;;;;;5073737;28;20070;-63
2023/10/12 09:16:09;;;;;;;49.13;32.60;;;;;;;;;;5074794;28;20021;-64
2023/10/12 09:18:47;;;;;;;48.13;33.17;;;;;;;;;;5074069;28;20021;-64
2023/10/12 09:23:50;;;;;;;45.08;32.47;;;;;;;;;;5074470;28;20059;-64
2023/10/12 09:26:21;;;;;;;52.53;35.22;;;;;;;;;;5073075;28;20031;-63
2023/10/12 09:31:32;;;;;;;44.08;31.77;;;;;;;;;;5074824;28;20132;-63
2023/10/12 09:37:05;;;;;;;43.13;30.50;;;;;;;;;;5026619;28;19928;-63
2023/10/12 09:39:34;;;;;;;43.13;31.63;;;;;;;;;;5066959;28;20032;-63
2023/10/12 09:42:09;;;;;;;48.03;33.40;;;;;;;;;;5074161;28;20047;-63
2023/10/12 09:44:41;;;;;;;44.42;32.97;;;;;;;;;;5074313;28;20058;-63
2023/10/12 09:47:11;;;;;;;41.97;32.67;;;;;;;;;;5072652;28;20040;-63
2023/10/12 09:49:46;;;;;;;49.55;34.80;;;;;;;;;;5064801;28;20020;-63
2023/10/12 09:52:13;;;;;;;47.55;35.53;;;;;;;;;;5074273;28;20020;-63
2023/10/12 09:54:48;;;;;;;47.35;34.90;;;;;;;;;;5074175;28;20098;-63
2023/10/12 09:57:25;;;;;;;49.40;34.72;;;;;;;;;;5074028;28;20036;-63
2023/10/12 09:59:53;;;;;;;45.45;34.17;;;;;;;;;;5073851;28;20259;-63
2023/10/12 10:02:29;;;;;;;48.22;35.85;;;;;;;;;;5071214;28;20021;-63
2023/10/12 10:07:52;;;;;;;54.05;34.28;;;;;;;;;;5073937;28;20032;-65
2023/10/12 10:10:33;;;;;;;56.80;33.05;;;;;;;;;;5073771;28;20063;-64
2023/10/12 10:13:03;;;;;;;44.78;33.15;;;;;;;;;;5060744;28;20038;-64
2023/10/12 10:15:44;;;;;;;43.45;32.45;;;;;;;;;;5074048;28;20387;-64
2023/10/12 10:18:16;;;;;;;44.47;33.13;;;;;;;;;;5054820;28;20044;-64
2023/10/12 10:20:56;;;;;;;47.80;29.92;;;;;;;;;;5073627;28;20102;-64
2023/10/12 10:23:22;;;;;;;45.20;30.77;;;;;;;;;;5073403;28;20031;-64
2023/10/12 10:25:56;;;;;;;43.25;31.50;;;;;;;;;;5069931;28;20478;-64
2023/10/12 10:28:32;;;;;;;49.33;32.03;;;;;;;;;;5067655;28;20147;-64
2023/10/12 10:31:01;;;;;;;45.50;32.28;;;;;;;;;;5069396;28;20025;-64
2023/10/12 10:33:28;;;;;;;38.85;31.42;;;;;;;;;;5072412;28;20041;-64
2023/10/12 10:36:13;;;;;;;45.97;34.05;;;;;;;;;;5072653;28;20455;-65
2023/10/12 10:38:53;;;;;;;;;;;;;;;;;;5072179;28;20016;-64
2023/10/12 10:41:46;;;;;;;51.25;33.38;;;;;;;;;;5072989;28;19935;-64
2023/10/12 10:44:21;;;;;;;37.63;31.15;;;;;;;;;;5073185;28;20020;-64
2023/10/12 10:46:49;;;;;;;37.28;30.10;;;;;;;;;;5072702;28;20386;-64
2023/10/12 10:49:16;;;;;;;42.55;32.35;;;;;;;;;;5073047;28;20016;-64
2023/10/12 10:52:26;;;;;;;44.20;31.70;;;;;;;;;;5072611;28;20028;-64
2023/10/12 10:55:26;;;;;;;38.40;28.38;;;;;;;;;;5069641;28;20028;-64
2023/10/12 10:57:37;;;;;;;40.50;29.38;;;;;;;;;;5055025;28;20033;-64
2023/10/12 11:00:56;;;;;;;38.55;28.63;;;;;;;;;;5072670;28;20020;-64
2023/10/12 11:02:52;;;;;;;40.25;28.48;;;;;;;;;;5061629;28;20033;-64
2023/10/12 11:05:21;;;;;;;37.67;26.05;;;;;;;;;;5072281;28;20538;-64
2023/10/12 11:07:50;;;;;;;33.28;25.08;;;;;;;;;;5070883;28;20036;-64
2023/10/12 11:10:19;;;;;;;38.58;25.98;;;;;;;;;;5070843;28;20454;-64
2023/10/12 11:12:45;;;;;;;31.55;25.45;;;;;;;;;;5072289;28;20036;-64
2023/10/12 11:15:14;;;;;;;34.03;23.02;;;;;;;;;;5072745;28;20420;-64
2023/10/12 11:17:41;;;;;;;32.28;22.63;;;;;;;;;;5070498;28;20021;-64
2023/10/12 11:23:11;;;;;;;33.20;27.23;;;;;;;;;;5072506;28;20077;-64
2023/10/12 11:25:41;;;;;;;32.85;25.70;;;;;;;;;;5056680;28;20387;-64
2023/10/12 11:28:23;;;;;;;32.35;25.08;;;;;;;;;;5072175;28;20393;-64
2023/10/12 11:31:01;;;;;;;34.05;24.75;;;;;;;;;;5070718;28;20052;-64
2023/10/12 11:33:28;;;;;;;27.65;22.33;;;;;;;;;;5072182;28;20519;-64
2023/10/12 11:36:00;;;;;;;31.48;23.25;;;;;;;;;;5071900;28;20442;-64
2023/10/12 11:38:26;;;;;;;30.48;22.23;;;;;;;;;;5070651;28;20029;-65
2023/10/12 11:40:52;;;;;;;27.52;20.35;;;;;;;;;;5072015;28;20020;-64
2023/10/12 11:43:44;;;;;;;25.60;19.42;;;;;;;;;;5071721;28;20034;-64
2023/10/12 11:46:10;;;;;;;25.10;20.10;;;;;;;;;;5072059;28;20029;-64
2023/10/12 11:48:36;;;;;;;24.25;19.77;;;;;;;;;;5071902;28;20044;-64
2023/10/12 11:51:11;;;;;;;26.73;20.60;;;;;;;;;;5071923;28;20012;-64
2023/10/12 11:53:38;;;;;;;24.83;19.73;;;;;;;;;;5057971;28;20374;-64
2023/10/12 11:56:13;;;;;;;28.42;19.83;;;;;;;;;;5070538;28;20048;-64
2023/10/12 12:07:53;;;;;;;30.33;20.02;;;;;;;;;;5069935;28;20054;-65
2023/10/12 12:10:54;;;;;;;29.50;21.05;;;;;;;;;;5053484;28;20107;-65
2023/10/12 12:13:13;;;;;;;25.60;19.60;;;;;;;;;;5068447;28;20071;-65
2023/10/12 12:15:45;;;;;;;27.90;19.85;;;;;;;;;;5071891;28;20031;-65
2023/10/12 12:18:20;;;;;;;31.30;21.25;;;;;;;;;;5059690;28;20036;-65
2023/10/12 12:20:49;;;;;;;28.02;21.20;;;;;;;;;;5069528;28;20029;-65
2023/10/12 12:23:15;;;;;;;24.15;18.98;;;;;;;;;;5071005;28;20074;-65
2023/10/12 12:25:42;;;;;;;30.05;21.65;;;;;;;;;;5071351;28;20056;-65
2023/10/12 12:28:16;;;;;;;28.60;22.77;;;;;;;;;;5070135;28;20033;-65
2023/10/12 12:30:51;;;;;;;;;;;;;;;;;;5069535;28;20054;-65
2023/10/12 12:33:17;;;;;;;30.30;20.80;;;;;;;;;;5072084;28;20207;-67
2023/10/12 12:35:47;;;;;;;27.65;21.17;;;;;;;;;;5056086;28;20051;-62
2023/10/12 12:38:33;;;;;;;32.42;21.40;;;;;;;;;;5071540;28;20053;-62
2023/10/12 12:41:05;;;;;;;26.17;18.40;;;;;;;;;;5071893;28;20030;-72
2023/10/12 12:43:33;;;;;;;27.50;19.70;;;;;;;;;;5065818;28;20021;-74
2023/10/12 12:45:59;;;;;;;24.88;19.30;;;;;;;;;;5034153;28;20028;-72
2023/10/12 12:48:28;;;;;;;23.85;17.42;;;;;;;;;;5073885;28;20048;-72
2023/10/12 12:50:54;;;;;;;28.05;18.65;;;;;;;;;;5062507;28;20078;-76
2023/10/12 12:53:20;;;;;;;22.80;18.10;;;;;;;;;;5060114;28;20025;-72
2023/10/12 12:55:46;;;;;;;24.02;17.00;;;;;;;;;;5066493;28;20461;-66
2023/10/12 12:58:17;;;;;;;23.75;16.30;;;;;;;;;;5072354;28;20024;-73
2023/10/12 13:00:46;;;;;;;25.45;17.52;;;;;;;;;;5077559;28;20493;-72
2023/10/12 13:03:12;;;;;;;26.35;18.17;;;;;;;;;;5063020;28;20067;-71
2023/10/12 13:05:38;;;;;;;23.63;17.50;;;;;;;;;;5076609;28;20029;-67
2023/10/12 13:08:07;;;;;;;29.30;20.00;;;;;;;;;;5075416;28;20090;-66
2023/10/12 13:10:33;;;;;;;28.88;19.80;;;;;;;;;;5061782;28;20043;-73
2023/10/12 13:13:01;;;;;;;27.80;18.75;;;;;;;;;;5072918;28;20027;-68
2023/10/12 13:15:27;;;;;;;27.00;18.52;;;;;;;;;;5075121;28;20017;-76
2023/10/12 13:17:56;;;;;;;31.90;19.58;;;;;;;;;;5061482;28;20066;-71
2023/10/12 13:20:22;;;;;;;24.25;18.10;;;;;;;;;;5075706;28;20039;-64
2023/10/12 13:22:49;;;;;;;28.23;17.65;;;;;;;;;;5075674;28;20025;-62
2023/10/12 13:25:17;;;;;;;22.67;16.98;;;;;;;;;;5074845;28;20013;-62
2023/10/12 13:27:44;;;;;;;28.92;17.98;;;;;;;;;;5074342;28;20471;-67
2023/10/12 13:30:10;;;;;;;23.42;16.83;;;;;;;;;;5061723;28;20463;-64
2023/10/12 13:32:37;;;;;;;23.42;16.40;;;;;;;;;;5075117;28;20020;-67
2023/10/12 13:35:18;;;;;;;23.30;15.48;;;;;;;;;;5071529;28;20037;-63
2023/10/12 13:37:47;;;;;;;22.58;15.55;;;;;;;;;;5073143;28;20101;-64
2023/10/12 13:40:16;;;;;;;26.88;14.70;;;;;;;;;;5074928;28;20031;-76
2023/10/12 13:42:43;;;;;;;28.38;15.05;;;;;;;;;;5063097;28;20028;-73
2023/10/12 13:45:18;;;;;;;18.08;13.65;;;;;;;;;;5057698;28;20021;-76
2023/10/12 13:47:47;;;;;;;25.33;15.05;;;;;;;;;;5065974;28;20037;-62
2023/10/12 13:50:14;;;;;;;16.27;13.75;;;;;;;;;;5042951;28;20036;-71
2023/10/12 13:52:41;;;;;;;26.95;14.75;;;;;;;;;;5073590;28;20024;-68
2023/10/12 13:55:11;;;;;;;17.05;13.30;;;;;;;;;;5074561;28;20495;-69
2023/10/12 13:57:40;;;;;;;17.98;13.95;;;;;;;;;;5050083;28;20024;-64
2023/10/12 14:00:17;;;;;;;22.23;14.98;;;;;;;;;;5054329;28;20402;-65
2023/10/12 14:02:43;;;;;;;22.13;14.00;;;;;;;;;;5073070;28;20040;-60
2023/10/12 14:05:09;;;;;;;22.08;12.88;;;;;;;;;;5057124;28;20474;-74
2023/10/12 14:07:37;;;;;;;20.67;12.88;;;;;;;;;;5055759;28;20039;-69
2023/10/12 14:10:04;;;;;;;25.20;14.65;;;;;;;;;;5074727;28;20485;-70
2023/10/12 14:12:33;;;;;;;19.17;12.50;;;;;;;;;;5073073;28;20528;-65
2023/10/12 14:14:58;;;;;;;22.98;13.73;;;;;;;;;;5071122;28;20090;-66
2023/10/12 14:17:24;;;;;;;24.83;13.88;;;;;;;;;;5068457;28;20440;-68
2023/10/12 14:19:51;;;;;;;21.80;14.43;;;;;;;;;;5071647;28;20021;-70
2023/10/12 14:22:17;;;;;;;19.00;14.27;;;;;;;;;;5072739;28;20039;-74
2023/10/12 14:24:47;;;;;;;20.15;13.23;;;;;;;;;;5049119;28;20013;-69
2023/10/12 14:27:13;;;;;;;21.05;13.05;;;;;;;;;;5066135;28;20028;-69
2023/10/12 14:29:39;;;;;;;18.77;14.10;;;;;;;;;;5066378;28;20025;-70
2023/10/12 14:32:05;;;;;;;17.10;12.10;;;;;;;;;;5066159;28;20040;-70
2023/10/12 14:34:31;;;;;;;19.15;14.68;;;;;;;;;;5061236;28;20056;-67
2023/10/12 14:36:57;;;;;;;19.25;13.63;;;;;;;;;;5067698;28;20117;-68
2023/10/12 14:39:23;;;;;;;23.13;13.52;;;;;;;;;;5065681;28;20021;-69
2023/10/12 14:41:50;;;;;;;15.23;13.07;;;;;;;;;;5073155;28;20029;-67
2023/10/12 14:44:16;;;;;;;17.30;12.95;;;;;;;;;;5072757;28;20059;-61
2023/10/12 14:46:45;;;;;;;16.33;12.85;;;;;;;;;;5072067;28;20035;-65
2023/10/12 14:49:11;;;;;;;23.30;12.73;;;;;;;;;;5063440;28;20048;-65
2023/10/12 14:51:37;;;;;;;19.35;13.13;;;;;;;;;;5052844;28;20021;-62
2023/10/12 14:54:06;;;;;;;17.08;13.07;;;;;;;;;;5065540;28;20106;-64
2023/10/12 14:56:32;;;;;;;17.98;13.43;;;;;;;;;;5071178;28;20146;-64
2023/10/12 14:58:58;;;;;;;16.73;12.35;;;;;;;;;;5063759;28;20112;-64
2023/10/12 15:01:28;;;;;;;18.48;11.77;;;;;;;;;;5061798;28;20074;-68
2023/10/12 15:03:55;;;;;;;21.25;12.95;;;;;;;;;;5062260;28;20025;-68
2023/10/12 15:06:21;;;;;;;16.60;12.30;;;;;;;;;;5065059;28;20098;-68
2023/10/12 15:08:48;;;;;;;16.45;12.82;;;;;;;;;;5061432;28;20107;-68
2023/10/12 15:11:14;;;;;;;19.60;13.82;;;;;;;;;;5058256;28;20025;-69
2023/10/12 15:13:41;;;;;;;18.85;12.50;;;;;;;;;;5060435;28;20032;-68
2023/10/12 15:16:10;;;;;;;16.90;11.50;;;;;;;;;;5060121;28;20029;-63
2023/10/12 15:18:41;;;;;;;16.00;11.65;;;;;;;;;;5065558;28;20017;-65
2023/10/12 15:21:11;;;;;;;17.20;12.13;;;;;;;;;;5063272;28;20024;-72
2023/10/12 15:23:37;;;;;;;16.77;11.32;;;;;;;;;;5070292;28;20107;-67
2023/10/12 15:26:06;;;;;;;16.88;12.60;;;;;;;;;;5070592;28;20378;-64
2023/10/12 15:28:32;;;;;;;15.25;12.20;;;;;;;;;;5064187;28;20406;-66
2023/10/12 15:30:58;;;;;;;17.50;11.73;;;;;;;;;;5074890;28;20556;-67
2023/10/12 15:33:24;;;;;;;13.77;11.65;;;;;;;;;;5070784;28;20049;-69
2023/10/12 15:35:50;;;;;;;15.35;11.02;;;;;;;;;;5070896;28;20029;-72
2023/10/12 15:38:17;;;;;;;16.48;11.32;;;;;;;;;;5067823;28;20389;-73
2023/10/12 15:40:43;;;;;;;18.20;12.45;;;;;;;;;;5070943;28;20411;-72
2023/10/12 15:43:15;;;;;;;14.35;11.63;;;;;;;;;;5051135;28;20031;-67
2023/10/12 15:45:43;;;;;;;14.73;11.70;;;;;;;;;;5071636;28;20055;-62
2023/10/12 15:48:09;;;;;;;16.73;11.13;;;;;;;;;;5059861;28;20040;-63
2023/10/12 15:50:35;;;;;;;16.35;10.85;;;;;;;;;;5071850;28;20021;-63
2023/10/12 15:53:01;;;;;;;14.85;10.82;;;;;;;;;;5062123;28;20132;-59
2023/10/12 15:55:27;;;;;;;17.35;11.70;;;;;;;;;;5063567;28;20017;-63
2023/10/12 15:57:53;;;;;;;16.48;12.18;;;;;;;;;;5050780;28;20141;-63
2023/10/12 16:00:23;;;;;;;15.30;11.73;;;;;;;;;;5067426;28;20382;-63
2023/10/12 16:02:53;;;;;;;21.27;12.60;;;;;;;;;;5060464;28;20033;-63
2023/10/12 16:05:20;;;;;;;22.40;11.82;;;;;;;;;;5066078;28;20056;-63
2023/10/12 16:07:46;;;;;;;17.40;12.82;;;;;;;;;;5061740;28;20064;-71
2023/10/12 16:10:14;;;;;;;22.10;12.52;;;;;;;;;;5070065;28;20104;-66
2023/10/12 16:12:41;;;;;;;16.40;11.75;;;;;;;;;;5049219;28;20021;-63
2023/10/12 16:15:08;;;;;;;19.88;11.55;;;;;;;;;;5054448;28;20029;-61
2023/10/12 16:17:35;;;;;;;17.63;12.02;;;;;;;;;;5058474;28;20033;-63
2023/10/12 16:20:04;;;;;;;15.48;11.60;;;;;;;;;;5060403;28;20492;-63
2023/10/12 16:22:32;;;;;;;15.18;11.10;;;;;;;;;;5063080;28;20025;-61
2023/10/12 16:25:06;;;;;;;17.80;11.55;;;;;;;;;;5053446;28;20027;-62
2023/10/12 16:27:32;;;;;;;;;;;;;;;;;;5049028;28;20029;-61
2023/10/12 16:29:58;;;;;;;17.25;11.73;;;;;;;;;;5067543;28;19958;-65
2023/10/12 16:32:25;;;;;;;17.80;12.07;;;;;;;;;;5064686;28;20058;-65
2023/10/12 16:34:51;;;;;;;16.35;11.32;;;;;;;;;;5074747;28;20135;-64
2023/10/12 16:37:17;;;;;;;21.00;11.65;;;;;;;;;;5069909;28;20111;-65
2023/10/12 16:39:43;;;;;;;19.52;11.45;;;;;;;;;;5067935;28;20028;-63
2023/10/12 16:42:10;;;;;;;16.35;12.43;;;;;;;;;;5063473;28;20017;-63
2023/10/12 16:44:36;;;;;;;17.42;11.52;;;;;;;;;;5068973;28;20111;-65
2023/10/12 16:47:02;;;;;;;21.75;12.20;;;;;;;;;;5063796;28;20483;-66
2023/10/12 16:49:31;;;;;;;18.90;11.55;;;;;;;;;;5066874;28;20500;-67
2023/10/12 16:51:56;;;;;;;20.05;11.80;;;;;;;;;;5066226;28;20079;-61
2023/10/12 16:54:22;;;;;;;21.48;10.85;;;;;;;;;;5070251;28;20024;-61
2023/10/12 16:56:49;;;;;;;16.20;11.30;;;;;;;;;;5068085;28;20067;-61
2023/10/12 16:59:15;;;;;;;17.33;11.68;;;;;;;;;;5052535;28;20028;-61
2023/10/12 17:01:42;;;;;;;18.80;11.02;;;;;;;;;;5072871;28;20021;-61
2023/10/12 17:04:18;;;;;;;15.80;11.02;;;;;;;;;;5067475;28;20103;-67
2023/10/12 17:06:44;;;;;;;21.23;12.32;;;;;;;;;;5053047;28;20029;-63
2023/10/12 17:09:12;;;;;;;15.82;11.55;;;;;;;;;;5074094;28;20020;-60
2023/10/12 17:11:38;;;;;;;17.25;11.32;;;;;;;;;;5061714;28;20024;-63
2023/10/12 17:14:07;;;;;;;17.20;11.55;;;;;;;;;;5066492;28;20086;-63
2023/10/12 17:16:34;;;;;;;15.15;12.77;;;;;;;;;;5069403;28;20032;-61
2023/10/12 17:19:00;;;;;;;14.52;12.15;;;;;;;;;;5072732;28;20016;-60
2023/10/12 17:21:26;;;;;;;21.00;12.88;;;;;;;;;;5071598;28;20076;-62